Detall de PIREP

Printer-friendly versionPDF version

[2015/04/12 13:56:00]
Flight IATA:CT3233
Pilot Number:016
Company ICAO:CAT
Aircraft Type:B738/F
PAX:109
Departing Airport: LEMD
Destination Airport: LEPA
Alternate Airport:LEBL
Online: VATSIM
Route:NANDO CLS UN733 GATOS
Flight Level:F310
No Slew and time accel
No pause
Crash detect
Detect pilot in Cockpit between each 30 and 45 minutes
13:56 Zero fuel Weight: 112733 Lbs, Fuel Weight: 13009 Lbs
13:56 VATSIM:LEMD 122030Z 05004KT 010V100 CAVOK 16/06 Q1025 NOSIG
13:56 VATSIM:LEPA 122030Z 06009KT CAVOK 14/12 Q1028 NOSIG
13:56 Parking Brakes off
14:00 Take-off
14:00 Take off Weight: 125284 Lbs
14:00 Wind: 045º @ 004 Knots Heading: 000º
14:00 POS N40º 30´ 49´´ W003º 33´ 33´´
14:00 Flaps:3 at 150 Knots
14:00 Gear Up: 153 Knots
14:01 Flaps:2 at 201 Knots
14:01 Flaps:1 at 220 Knots
14:02 Flaps:0 at 240 Knots
14:12 TOC
14:12 Fuel Weight: 9889 Lb
14:15 Wind:068º@024 Knots Heading: 104º Ground Speed: 445 Knots Altitude 31358 ft
14:30 Wind:061º@019 Knots Heading: 086º Ground Speed: 442 Knots Altitude 31430 ft
14:34 TOD
14:34 Fuel Weight: 7573 Lb
14:45 Wind:062º@013 Knots Heading: 087º Ground Speed: 263 Knots Altitude 10009 ft
14:47 Flaps:1 at 240 Knots
14:48 Flaps:2 at 224 Knots
14:49 Flaps:3 at 201 Knots
14:50 Flaps:4 at 190 Knots
14:50 Gear Down: 189 Knots
14:51 Flaps:5 at 164 Knots
14:51 Flaps:6 at 156 Knots
14:51 Flaps:7 at 138 Knots
14:51 Flaps:8 at 129 Knots
14:54 TouchDown:Rate -307 ft/min Speed: 127 Knots
14:54 VATSIM:LEPA 122130Z 06004KT CAVOK 13/12 Q1028 NOSIG
14:54 Land
14:54 Wind:062º@004 Knots
14:54 Heading: 059º
14:54 Flight Duration: 00:54
14:54 Landing Weight: 119316 Lbs
14:54 POS N39º 33´ 16´´ E002º 43´ 34´´
14:56 Parking brakes on
14:56 Block to Block Duration: 01:00
14:56 Final Fuel: 6466 Lbls
14:56 Spent Fuel: 6543 Lbls
14:56 Flight Length: 328 NM
14:56 TOD Land Length: 91 NM

Exportar CSV

Powered by Drupal - Modified by Danger4k